sensor_id;sensor_type;location;lat;lon;timestamp;P1;durP1;ratioP1;P2;durP2;ratioP2
36963;SDS011;22878;48.616;35.326;2022-11-20T00:01:26;19.35;;;10.28;;
36963;SDS011;22878;48.616;35.326;2022-11-20T00:03:54;22.42;;;11.55;;
36963;SDS011;22878;48.616;35.326;2022-11-20T00:06:23;28.65;;;13.35;;
36963;SDS011;22878;48.616;35.326;2022-11-20T00:08:50;26.30;;;12.90;;
36963;SDS011;22878;48.616;35.326;2022-11-20T00:11:20;30.30;;;12.58;;
36963;SDS011;22878;48.616;35.326;2022-11-20T00:13:49;25.68;;;12.05;;
36963;SDS011;22878;48.616;35.326;2022-11-20T00:16:19;26.25;;;11.93;;
36963;SDS011;22878;48.616;35.326;2022-11-20T00:18:47;27.25;;;12.93;;
36963;SDS011;22878;48.616;35.326;2022-11-20T00:21:15;27.27;;;12.33;;
36963;SDS011;22878;48.616;35.326;2022-11-20T00:23:44;24.25;;;11.43;;
36963;SDS011;22878;48.616;35.326;2022-11-20T00:26:11;28.77;;;12.33;;
36963;SDS011;22878;48.616;35.326;2022-11-20T00:28:40;22.85;;;10.70;;
36963;SDS011;22878;48.616;35.326;2022-11-20T00:33:40;23.98;;;11.25;;
36963;SDS011;22878;48.616;35.326;2022-11-20T00:36:11;21.87;;;10.35;;
36963;SDS011;22878;48.616;35.326;2022-11-20T00:38:40;22.70;;;11.40;;
36963;SDS011;22878;48.616;35.326;2022-11-20T00:41:08;24.27;;;10.90;;
36963;SDS011;22878;48.616;35.326;2022-11-20T00:43:36;22.30;;;10.18;;
36963;SDS011;22878;48.616;35.326;2022-11-20T00:48:36;23.75;;;10.82;;
36963;SDS011;22878;48.616;35.326;2022-11-20T00:51:02;22.95;;;10.98;;
36963;SDS011;22878;48.616;35.326;2022-11-20T00:53:28;24.37;;;10.75;;
36963;SDS011;22878;48.616;35.326;2022-11-20T00:58:24;24.00;;;10.72;;
36963;SDS011;22878;48.616;35.326;2022-11-20T01:01:00;21.73;;;10.45;;
36963;SDS011;22878;48.616;35.326;2022-11-20T01:03:37;24.67;;;10.90;;
36963;SDS011;22878;48.616;35.326;2022-11-20T01:06:16;21.52;;;10.95;;
36963;SDS011;22878;48.616;35.326;2022-11-20T01:08:44;23.15;;;11.18;;
36963;SDS011;22878;48.616;35.326;2022-11-20T01:11:12;22.95;;;10.85;;
36963;SDS011;22878;48.616;35.326;2022-11-20T01:13:41;24.15;;;10.93;;
36963;SDS011;22878;48.616;35.326;2022-11-20T01:16:09;21.37;;;10.40;;
36963;SDS011;22878;48.616;35.326;2022-11-20T01:18:42;23.47;;;11.10;;
36963;SDS011;22878;48.616;35.326;2022-11-20T01:21:12;21.05;;;10.23;;
36963;SDS011;22878;48.616;35.326;2022-11-20T01:23:42;26.30;;;11.68;;
36963;SDS011;22878;48.616;35.326;2022-11-20T01:26:10;24.12;;;11.12;;
36963;SDS011;22878;48.616;35.326;2022-11-20T01:28:39;23.50;;;11.08;;
36963;SDS011;22878;48.616;35.326;2022-11-20T01:33:43;23.70;;;10.70;;
36963;SDS011;22878;48.616;35.326;2022-11-20T01:36:12;24.65;;;11.53;;
36963;SDS011;22878;48.616;35.326;2022-11-20T01:38:40;27.02;;;11.65;;
36963;SDS011;22878;48.616;35.326;2022-11-20T01:41:06;24.87;;;10.80;;
36963;SDS011;22878;48.616;35.326;2022-11-20T01:43:34;24.00;;;11.22;;
36963;SDS011;22878;48.616;35.326;2022-11-20T01:46:05;21.82;;;10.68;;
36963;SDS011;22878;48.616;35.326;2022-11-20T01:54:13;22.37;;;10.48;;
36963;SDS011;22878;48.616;35.326;2022-11-20T01:56:43;23.12;;;10.10;;
36963;SDS011;22878;48.616;35.326;2022-11-20T01:59:12;21.93;;;10.65;;
36963;SDS011;22878;48.616;35.326;2022-11-20T02:01:41;25.30;;;11.10;;
36963;SDS011;22878;48.616;35.326;2022-11-20T02:04:07;21.97;;;10.98;;
36963;SDS011;22878;48.616;35.326;2022-11-20T02:06:35;24.23;;;11.48;;
36963;SDS011;22878;48.616;35.326;2022-11-20T02:09:08;22.75;;;10.85;;
36963;SDS011;22878;48.616;35.326;2022-11-20T02:11:34;20.57;;;10.55;;
36963;SDS011;22878;48.616;35.326;2022-11-20T02:14:00;23.42;;;11.68;;
36963;SDS011;22878;48.616;35.326;2022-11-20T02:19:07;23.83;;;11.55;;
36963;SDS011;22878;48.616;35.326;2022-11-20T02:24:32;29.37;;;12.00;;
36963;SDS011;22878;48.616;35.326;2022-11-20T02:29:39;28.80;;;13.10;;
36963;SDS011;22878;48.616;35.326;2022-11-20T02:35:06;28.42;;;12.73;;
36963;SDS011;22878;48.616;35.326;2022-11-20T02:37:36;28.57;;;12.95;;
36963;SDS011;22878;48.616;35.326;2022-11-20T02:40:05;28.85;;;12.40;;
36963;SDS011;22878;48.616;35.326;2022-11-20T02:42:32;28.65;;;13.35;;
36963;SDS011;22878;48.616;35.326;2022-11-20T02:44:58;23.32;;;11.05;;
36963;SDS011;22878;48.616;35.326;2022-11-20T02:47:24;22.98;;;11.12;;
36963;SDS011;22878;48.616;35.326;2022-11-20T02:49:50;29.37;;;11.85;;
36963;SDS011;22878;48.616;35.326;2022-11-20T02:52:16;23.62;;;10.70;;
36963;SDS011;22878;48.616;35.326;2022-11-20T02:54:42;27.00;;;11.43;;
36963;SDS011;22878;48.616;35.326;2022-11-20T02:57:08;23.55;;;11.08;;
36963;SDS011;22878;48.616;35.326;2022-11-20T02:59:34;23.05;;;11.35;;
36963;SDS011;22878;48.616;35.326;2022-11-20T03:02:00;23.52;;;11.88;;
36963;SDS011;22878;48.616;35.326;2022-11-20T03:04:26;26.25;;;12.15;;
36963;SDS011;22878;48.616;35.326;2022-11-20T03:06:52;25.85;;;12.13;;
36963;SDS011;22878;48.616;35.326;2022-11-20T03:09:17;30.12;;;13.40;;
36963;SDS011;22878;48.616;35.326;2022-11-20T03:11:43;24.80;;;12.23;;
36963;SDS011;22878;48.616;35.326;2022-11-20T03:14:09;24.98;;;11.65;;
36963;SDS011;22878;48.616;35.326;2022-11-20T03:16:35;29.42;;;13.13;;
36963;SDS011;22878;48.616;35.326;2022-11-20T03:19:01;27.55;;;12.15;;
36963;SDS011;22878;48.616;35.326;2022-11-20T03:21:27;26.68;;;12.70;;
36963;SDS011;22878;48.616;35.326;2022-11-20T03:23:53;25.82;;;12.20;;
36963;SDS011;22878;48.616;35.326;2022-11-20T03:28:50;33.78;;;12.45;;
36963;SDS011;22878;48.616;35.326;2022-11-20T03:31:21;26.62;;;12.55;;
36963;SDS011;22878;48.616;35.326;2022-11-20T03:33:50;25.92;;;12.20;;
36963;SDS011;22878;48.616;35.326;2022-11-20T03:36:17;28.47;;;12.90;;
36963;SDS011;22878;48.616;35.326;2022-11-20T03:38:45;28.50;;;12.85;;
36963;SDS011;22878;48.616;35.326;2022-11-20T03:41:13;28.55;;;13.18;;
36963;SDS011;22878;48.616;35.326;2022-11-20T03:43:46;30.20;;;13.45;;
36963;SDS011;22878;48.616;35.326;2022-11-20T03:46:18;28.98;;;12.90;;
36963;SDS011;22878;48.616;35.326;2022-11-20T03:48:45;29.18;;;13.55;;
36963;SDS011;22878;48.616;35.326;2022-11-20T03:53:51;29.40;;;13.32;;
36963;SDS011;22878;48.616;35.326;2022-11-20T03:56:22;29.42;;;12.88;;
36963;SDS011;22878;48.616;35.326;2022-11-20T04:01:21;30.60;;;13.40;;
36963;SDS011;22878;48.616;35.326;2022-11-20T04:03:53;27.20;;;12.55;;
36963;SDS011;22878;48.616;35.326;2022-11-20T04:06:22;26.25;;;11.80;;
36963;SDS011;22878;48.616;35.326;2022-11-20T04:08:53;29.87;;;13.03;;
36963;SDS011;22878;48.616;35.326;2022-11-20T04:13:55;31.48;;;13.32;;
36963;SDS011;22878;48.616;35.326;2022-11-20T04:16:28;32.08;;;14.53;;
36963;SDS011;22878;48.616;35.326;2022-11-20T04:18:58;42.78;;;15.03;;
36963;SDS011;22878;48.616;35.326;2022-11-20T04:21:26;30.52;;;13.25;;
36963;SDS011;22878;48.616;35.326;2022-11-20T04:23:53;27.22;;;12.65;;
36963;SDS011;22878;48.616;35.326;2022-11-20T04:26:20;25.90;;;11.88;;
36963;SDS011;22878;48.616;35.326;2022-11-20T04:28:48;26.35;;;12.68;;
36963;SDS011;22878;48.616;35.326;2022-11-20T04:31:16;27.13;;;12.47;;
36963;SDS011;22878;48.616;35.326;2022-11-20T04:33:45;25.43;;;12.05;;
36963;SDS011;22878;48.616;35.326;2022-11-20T04:36:13;27.17;;;11.83;;
36963;SDS011;22878;48.616;35.326;2022-11-20T04:38:42;26.12;;;12.30;;
36963;SDS011;22878;48.616;35.326;2022-11-20T04:41:19;29.45;;;13.20;;
36963;SDS011;22878;48.616;35.326;2022-11-20T04:43:48;32.50;;;14.47;;
36963;SDS011;22878;48.616;35.326;2022-11-20T04:46:16;29.40;;;13.55;;
36963;SDS011;22878;48.616;35.326;2022-11-20T04:48:44;29.32;;;13.10;;
36963;SDS011;22878;48.616;35.326;2022-11-20T04:51:12;34.78;;;14.95;;
36963;SDS011;22878;48.616;35.326;2022-11-20T04:53:38;31.97;;;14.28;;
36963;SDS011;22878;48.616;35.326;2022-11-20T04:56:05;29.77;;;13.32;;
36963;SDS011;22878;48.616;35.326;2022-11-20T04:58:34;31.60;;;13.50;;
36963;SDS011;22878;48.616;35.326;2022-11-20T05:01:01;31.62;;;13.05;;
36963;SDS011;22878;48.616;35.326;2022-11-20T05:03:32;30.05;;;13.53;;
36963;SDS011;22878;48.616;35.326;2022-11-20T05:08:29;27.65;;;13.10;;
36963;SDS011;22878;48.616;35.326;2022-11-20T05:11:03;27.15;;;12.35;;
36963;SDS011;22878;48.616;35.326;2022-11-20T05:13:33;28.90;;;12.73;;
36963;SDS011;22878;48.616;35.326;2022-11-20T05:16:03;26.48;;;12.98;;
36963;SDS011;22878;48.616;35.326;2022-11-20T05:18:32;26.90;;;12.05;;
36963;SDS011;22878;48.616;35.326;2022-11-20T05:20:59;24.27;;;11.43;;
36963;SDS011;22878;48.616;35.326;2022-11-20T05:23:25;28.70;;;12.50;;
36963;SDS011;22878;48.616;35.326;2022-11-20T05:25:53;31.12;;;13.18;;
36963;SDS011;22878;48.616;35.326;2022-11-20T05:28:20;34.92;;;14.20;;
36963;SDS011;22878;48.616;35.326;2022-11-20T05:30:47;33.73;;;13.85;;
36963;SDS011;22878;48.616;35.326;2022-11-20T05:33:14;27.20;;;13.15;;
36963;SDS011;22878;48.616;35.326;2022-11-20T05:35:41;30.77;;;14.68;;
36963;SDS011;22878;48.616;35.326;2022-11-20T05:38:07;28.40;;;13.08;;
36963;SDS011;22878;48.616;35.326;2022-11-20T05:40:33;28.15;;;13.20;;
36963;SDS011;22878;48.616;35.326;2022-11-20T05:42:59;30.95;;;13.60;;
36963;SDS011;22878;48.616;35.326;2022-11-20T05:45:26;31.45;;;13.03;;
36963;SDS011;22878;48.616;35.326;2022-11-20T05:47:52;30.60;;;13.28;;
36963;SDS011;22878;48.616;35.326;2022-11-20T05:50:18;28.87;;;12.93;;
36963;SDS011;22878;48.616;35.326;2022-11-20T05:52:44;27.27;;;12.23;;
36963;SDS011;22878;48.616;35.326;2022-11-20T05:55:10;32.50;;;13.08;;
36963;SDS011;22878;48.616;35.326;2022-11-20T05:57:36;33.30;;;13.75;;
36963;SDS011;22878;48.616;35.326;2022-11-20T06:00:03;31.77;;;13.50;;
36963;SDS011;22878;48.616;35.326;2022-11-20T06:02:30;35.65;;;14.07;;
36963;SDS011;22878;48.616;35.326;2022-11-20T06:04:59;32.05;;;13.98;;
36963;SDS011;22878;48.616;35.326;2022-11-20T06:07:25;33.85;;;13.60;;
36963;SDS011;22878;48.616;35.326;2022-11-20T06:09:51;38.75;;;15.88;;
36963;SDS011;22878;48.616;35.326;2022-11-20T06:12:17;36.20;;;15.25;;
36963;SDS011;22878;48.616;35.326;2022-11-20T06:14:43;33.00;;;14.45;;
36963;SDS011;22878;48.616;35.326;2022-11-20T06:17:09;38.20;;;14.87;;
36963;SDS011;22878;48.616;35.326;2022-11-20T06:19:35;31.82;;;13.93;;
36963;SDS011;22878;48.616;35.326;2022-11-20T06:22:01;34.45;;;14.35;;
36963;SDS011;22878;48.616;35.326;2022-11-20T06:24:27;32.17;;;13.68;;
36963;SDS011;22878;48.616;35.326;2022-11-20T06:26:53;33.95;;;13.85;;
36963;SDS011;22878;48.616;35.326;2022-11-20T06:29:19;31.87;;;13.80;;
36963;SDS011;22878;48.616;35.326;2022-11-20T06:31:45;33.60;;;14.15;;
36963;SDS011;22878;48.616;35.326;2022-11-20T06:34:11;36.53;;;14.58;;
36963;SDS011;22878;48.616;35.326;2022-11-20T06:36:37;33.33;;;14.28;;
36963;SDS011;22878;48.616;35.326;2022-11-20T06:39:03;31.95;;;13.58;;
36963;SDS011;22878;48.616;35.326;2022-11-20T06:41:29;36.68;;;13.90;;
36963;SDS011;22878;48.616;35.326;2022-11-20T06:43:55;32.38;;;14.05;;
36963;SDS011;22878;48.616;35.326;2022-11-20T06:46:21;30.97;;;13.40;;
36963;SDS011;22878;48.616;35.326;2022-11-20T06:48:48;33.02;;;14.07;;
36963;SDS011;22878;48.616;35.326;2022-11-20T06:51:14;36.95;;;14.65;;
36963;SDS011;22878;48.616;35.326;2022-11-20T06:53:41;31.42;;;13.75;;
36963;SDS011;22878;48.616;35.326;2022-11-20T06:56:07;36.40;;;14.98;;
36963;SDS011;22878;48.616;35.326;2022-11-20T06:58:34;31.87;;;13.45;;
36963;SDS011;22878;48.616;35.326;2022-11-20T07:01:09;33.13;;;13.68;;
36963;SDS011;22878;48.616;35.326;2022-11-20T07:03:38;30.97;;;13.30;;
36963;SDS011;22878;48.616;35.326;2022-11-20T07:06:05;37.30;;;15.25;;
36963;SDS011;22878;48.616;35.326;2022-11-20T07:08:32;31.30;;;14.13;;
36963;SDS011;22878;48.616;35.326;2022-11-20T07:10:59;39.38;;;15.38;;
36963;SDS011;22878;48.616;35.326;2022-11-20T07:13:27;32.13;;;14.43;;
36963;SDS011;22878;48.616;35.326;2022-11-20T07:15:55;36.58;;;14.45;;
36963;SDS011;22878;48.616;35.326;2022-11-20T07:18:30;34.60;;;14.98;;
36963;SDS011;22878;48.616;35.326;2022-11-20T07:20:59;37.88;;;15.53;;
36963;SDS011;22878;48.616;35.326;2022-11-20T07:23:32;37.65;;;14.28;;
36963;SDS011;22878;48.616;35.326;2022-11-20T07:28:34;36.70;;;15.70;;
36963;SDS011;22878;48.616;35.326;2022-11-20T07:31:01;29.50;;;12.85;;
36963;SDS011;22878;48.616;35.326;2022-11-20T07:33:28;37.63;;;15.48;;
36963;SDS011;22878;48.616;35.326;2022-11-20T07:36:05;37.23;;;15.53;;
36963;SDS011;22878;48.616;35.326;2022-11-20T07:38:28;38.58;;;15.43;;
36963;SDS011;22878;48.616;35.326;2022-11-20T07:40:55;38.67;;;14.80;;
36963;SDS011;22878;48.616;35.326;2022-11-20T07:43:23;31.87;;;13.35;;
36963;SDS011;22878;48.616;35.326;2022-11-20T07:45:50;29.55;;;13.03;;
36963;SDS011;22878;48.616;35.326;2022-11-20T07:48:16;30.95;;;13.20;;
36963;SDS011;22878;48.616;35.326;2022-11-20T07:50:42;29.07;;;12.43;;
36963;SDS011;22878;48.616;35.326;2022-11-20T07:53:08;29.37;;;12.43;;
36963;SDS011;22878;48.616;35.326;2022-11-20T07:55:34;29.23;;;12.33;;
36963;SDS011;22878;48.616;35.326;2022-11-20T07:58:00;30.30;;;12.50;;
36963;SDS011;22878;48.616;35.326;2022-11-20T08:00:26;27.13;;;11.65;;
36963;SDS011;22878;48.616;35.326;2022-11-20T08:02:52;31.60;;;12.53;;
36963;SDS011;22878;48.616;35.326;2022-11-20T08:05:18;29.20;;;12.43;;
36963;SDS011;22878;48.616;35.326;2022-11-20T08:07:44;26.30;;;12.25;;
36963;SDS011;22878;48.616;35.326;2022-11-20T08:10:12;28.32;;;12.47;;
36963;SDS011;22878;48.616;35.326;2022-11-20T08:12:44;30.50;;;13.50;;
36963;SDS011;22878;48.616;35.326;2022-11-20T08:15:32;30.00;;;12.23;;
36963;SDS011;22878;48.616;35.326;2022-11-20T08:18:02;31.37;;;13.45;;
36963;SDS011;22878;48.616;35.326;2022-11-20T08:20:32;29.95;;;12.43;;
36963;SDS011;22878;48.616;35.326;2022-11-20T08:23:00;31.60;;;12.55;;
36963;SDS011;22878;48.616;35.326;2022-11-20T08:27:58;29.72;;;12.18;;
36963;SDS011;22878;48.616;35.326;2022-11-20T08:30:27;30.75;;;12.47;;
36963;SDS011;22878;48.616;35.326;2022-11-20T08:32:53;28.15;;;12.45;;
36963;SDS011;22878;48.616;35.326;2022-11-20T08:35:20;33.08;;;13.32;;
36963;SDS011;22878;48.616;35.326;2022-11-20T08:37:47;35.20;;;13.83;;
36963;SDS011;22878;48.616;35.326;2022-11-20T08:40:14;41.73;;;15.18;;
36963;SDS011;22878;48.616;35.326;2022-11-20T08:42:49;50.80;;;18.90;;
36963;SDS011;22878;48.616;35.326;2022-11-20T08:45:16;36.70;;;15.25;;
36963;SDS011;22878;48.616;35.326;2022-11-20T08:47:44;39.63;;;15.98;;
36963;SDS011;22878;48.616;35.326;2022-11-20T08:50:11;33.95;;;13.78;;
36963;SDS011;22878;48.616;35.326;2022-11-20T08:52:40;37.83;;;14.75;;
36963;SDS011;22878;48.616;35.326;2022-11-20T08:55:07;35.83;;;14.05;;
36963;SDS011;22878;48.616;35.326;2022-11-20T08:57:34;37.73;;;15.38;;
36963;SDS011;22878;48.616;35.326;2022-11-20T09:00:02;44.67;;;18.20;;
36963;SDS011;22878;48.616;35.326;2022-11-20T09:02:31;39.95;;;16.73;;
36963;SDS011;22878;48.616;35.326;2022-11-20T09:04:57;42.45;;;16.95;;
36963;SDS011;22878;48.616;35.326;2022-11-20T09:07:24;42.90;;;16.80;;
36963;SDS011;22878;48.616;35.326;2022-11-20T09:09:50;45.30;;;18.42;;
36963;SDS011;22878;48.616;35.326;2022-11-20T09:12:16;51.15;;;19.75;;
36963;SDS011;22878;48.616;35.326;2022-11-20T09:14:42;47.55;;;18.23;;
36963;SDS011;22878;48.616;35.326;2022-11-20T09:17:09;51.42;;;19.70;;
36963;SDS011;22878;48.616;35.326;2022-11-20T09:19:38;47.73;;;19.25;;
36963;SDS011;22878;48.616;35.326;2022-11-20T09:22:04;48.95;;;18.77;;
36963;SDS011;22878;48.616;35.326;2022-11-20T09:24:30;54.80;;;20.85;;
36963;SDS011;22878;48.616;35.326;2022-11-20T09:26:56;51.37;;;19.60;;
36963;SDS011;22878;48.616;35.326;2022-11-20T09:29:22;56.28;;;20.25;;
36963;SDS011;22878;48.616;35.326;2022-11-20T09:31:48;56.73;;;20.55;;
36963;SDS011;22878;48.616;35.326;2022-11-20T09:34:13;51.10;;;19.98;;
36963;SDS011;22878;48.616;35.326;2022-11-20T09:36:40;58.80;;;21.57;;
36963;SDS011;22878;48.616;35.326;2022-11-20T09:39:06;50.83;;;20.12;;
36963;SDS011;22878;48.616;35.326;2022-11-20T09:41:36;50.33;;;20.08;;
36963;SDS011;22878;48.616;35.326;2022-11-20T09:44:24;55.23;;;21.35;;
36963;SDS011;22878;48.616;35.326;2022-11-20T09:55:27;44.77;;;18.75;;
36963;SDS011;22878;48.616;35.326;2022-11-20T09:57:56;48.68;;;18.92;;
36963;SDS011;22878;48.616;35.326;2022-11-20T10:00:24;45.12;;;19.75;;
36963;SDS011;22878;48.616;35.326;2022-11-20T10:05:34;41.75;;;17.80;;
36963;SDS011;22878;48.616;35.326;2022-11-20T10:26:02;36.48;;;14.68;;
36963;SDS011;22878;48.616;35.326;2022-11-20T10:28:49;39.50;;;16.10;;
36963;SDS011;22878;48.616;35.326;2022-11-20T10:31:26;39.88;;;16.82;;
36963;SDS011;22878;48.616;35.326;2022-11-20T10:34:07;39.70;;;15.70;;
36963;SDS011;22878;48.616;35.326;2022-11-20T10:36:59;36.93;;;14.63;;
36963;SDS011;22878;48.616;35.326;2022-11-20T10:45:13;31.48;;;12.55;;
36963;SDS011;22878;48.616;35.326;2022-11-20T10:47:54;42.75;;;17.05;;
36963;SDS011;22878;48.616;35.326;2022-11-20T10:50:51;31.20;;;12.55;;
36963;SDS011;22878;48.616;35.326;2022-11-20T10:53:44;43.55;;;16.32;;
36963;SDS011;22878;48.616;35.326;2022-11-20T10:56:40;34.50;;;14.20;;
36963;SDS011;22878;48.616;35.326;2022-11-20T11:02:21;35.33;;;14.58;;
36963;SDS011;22878;48.616;35.326;2022-11-20T11:07:22;36.13;;;14.75;;
36963;SDS011;22878;48.616;35.326;2022-11-20T11:09:58;35.25;;;13.55;;
36963;SDS011;22878;48.616;35.326;2022-11-20T11:12:25;43.78;;;16.45;;
36963;SDS011;22878;48.616;35.326;2022-11-20T11:14:55;36.17;;;14.13;;
36963;SDS011;22878;48.616;35.326;2022-11-20T11:19:56;39.83;;;15.70;;
36963;SDS011;22878;48.616;35.326;2022-11-20T11:22:33;42.93;;;16.82;;
36963;SDS011;22878;48.616;35.326;2022-11-20T11:25:03;41.53;;;16.67;;
36963;SDS011;22878;48.616;35.326;2022-11-20T11:27:29;41.75;;;16.00;;
36963;SDS011;22878;48.616;35.326;2022-11-20T11:32:36;43.45;;;17.05;;
36963;SDS011;22878;48.616;35.326;2022-11-20T11:35:06;45.23;;;18.20;;
36963;SDS011;22878;48.616;35.326;2022-11-20T11:37:44;48.48;;;18.27;;
36963;SDS011;22878;48.616;35.326;2022-11-20T11:40:14;44.38;;;16.90;;
36963;SDS011;22878;48.616;35.326;2022-11-20T11:42:43;47.40;;;17.70;;
36963;SDS011;22878;48.616;35.326;2022-11-20T11:47:44;42.88;;;16.80;;
36963;SDS011;22878;48.616;35.326;2022-11-20T11:55:48;40.43;;;16.20;;
36963;SDS011;22878;48.616;35.326;2022-11-20T11:58:37;39.05;;;14.18;;
36963;SDS011;22878;48.616;35.326;2022-11-20T12:04:02;36.30;;;15.23;;
36963;SDS011;22878;48.616;35.326;2022-11-20T12:06:51;29.87;;;12.60;;
36963;SDS011;22878;48.616;35.326;2022-11-20T12:09:23;36.50;;;14.18;;
36963;SDS011;22878;48.616;35.326;2022-11-20T12:11:55;37.95;;;13.75;;
36963;SDS011;22878;48.616;35.326;2022-11-20T12:17:12;34.23;;;13.80;;
36963;SDS011;22878;48.616;35.326;2022-11-20T12:19:39;36.98;;;14.28;;
36963;SDS011;22878;48.616;35.326;2022-11-20T12:31:07;35.30;;;12.05;;
36963;SDS011;22878;48.616;35.326;2022-11-20T12:39:42;30.97;;;11.75;;
36963;SDS011;22878;48.616;35.326;2022-11-20T12:42:28;29.50;;;11.38;;
36963;SDS011;22878;48.616;35.326;2022-11-20T12:51:11;34.80;;;12.63;;
36963;SDS011;22878;48.616;35.326;2022-11-20T13:02:52;30.27;;;11.40;;
36963;SDS011;22878;48.616;35.326;2022-11-20T13:05:40;32.83;;;12.23;;
36963;SDS011;22878;48.616;35.326;2022-11-20T13:08:11;33.70;;;11.00;;
36963;SDS011;22878;48.616;35.326;2022-11-20T13:19:54;35.00;;;12.13;;
36963;SDS011;22878;48.616;35.326;2022-11-20T13:24:55;38.60;;;12.37;;
36963;SDS011;22878;48.616;35.326;2022-11-20T13:27:22;36.80;;;12.10;;
36963;SDS011;22878;48.616;35.326;2022-11-20T13:32:55;39.92;;;13.98;;
36963;SDS011;22878;48.616;35.326;2022-11-20T13:35:36;46.75;;;14.18;;
36963;SDS011;22878;48.616;35.326;2022-11-20T13:38:11;54.65;;;18.20;;
36963;SDS011;22878;48.616;35.326;2022-11-20T13:40:53;56.85;;;19.90;;
36963;SDS011;22878;48.616;35.326;2022-11-20T13:46:04;40.48;;;13.32;;
36963;SDS011;22878;48.616;35.326;2022-11-20T13:48:39;39.10;;;12.88;;
36963;SDS011;22878;48.616;35.326;2022-11-20T13:51:25;36.45;;;12.35;;
36963;SDS011;22878;48.616;35.326;2022-11-20T13:57:22;36.25;;;12.30;;
36963;SDS011;22878;48.616;35.326;2022-11-20T14:05:46;36.03;;;11.20;;
36963;SDS011;22878;48.616;35.326;2022-11-20T14:08:21;34.58;;;12.25;;
36963;SDS011;22878;48.616;35.326;2022-11-20T14:11:04;47.45;;;13.25;;
36963;SDS011;22878;48.616;35.326;2022-11-20T14:13:49;40.05;;;12.82;;
36963;SDS011;22878;48.616;35.326;2022-11-20T14:16:31;44.20;;;13.78;;
36963;SDS011;22878;48.616;35.326;2022-11-20T14:21:49;42.25;;;12.95;;
36963;SDS011;22878;48.616;35.326;2022-11-20T14:24:39;46.02;;;15.25;;
36963;SDS011;22878;48.616;35.326;2022-11-20T14:27:10;36.10;;;11.83;;
36963;SDS011;22878;48.616;35.326;2022-11-20T14:29:43;36.68;;;11.22;;
36963;SDS011;22878;48.616;35.326;2022-11-20T14:32:14;34.18;;;11.28;;
36963;SDS011;22878;48.616;35.326;2022-11-20T14:34:43;29.40;;;9.03;;
36963;SDS011;22878;48.616;35.326;2022-11-20T14:37:12;29.23;;;9.25;;
36963;SDS011;22878;48.616;35.326;2022-11-20T14:39:50;27.65;;;9.65;;
36963;SDS011;22878;48.616;35.326;2022-11-20T14:42:21;30.20;;;9.35;;
36963;SDS011;22878;48.616;35.326;2022-11-20T14:44:52;31.15;;;9.93;;
36963;SDS011;22878;48.616;35.326;2022-11-20T14:47:26;26.27;;;9.88;;
36963;SDS011;22878;48.616;35.326;2022-11-20T14:49:55;24.10;;;8.95;;
36963;SDS011;22878;48.616;35.326;2022-11-20T14:52:24;26.90;;;8.80;;
36963;SDS011;22878;48.616;35.326;2022-11-20T14:54:57;24.85;;;8.53;;
36963;SDS011;22878;48.616;35.326;2022-11-20T14:57:27;22.98;;;8.05;;
36963;SDS011;22878;48.616;35.326;2022-11-20T15:00:05;21.50;;;8.40;;
36963;SDS011;22878;48.616;35.326;2022-11-20T15:02:40;22.07;;;7.97;;
36963;SDS011;22878;48.616;35.326;2022-11-20T15:05:11;25.15;;;8.73;;
36963;SDS011;22878;48.616;35.326;2022-11-20T15:07:40;24.32;;;7.90;;
36963;SDS011;22878;48.616;35.326;2022-11-20T15:10:13;24.37;;;8.48;;
36963;SDS011;22878;48.616;35.326;2022-11-20T15:12:53;23.15;;;7.10;;
36963;SDS011;22878;48.616;35.326;2022-11-20T15:18:00;19.30;;;7.33;;
36963;SDS011;22878;48.616;35.326;2022-11-20T15:20:28;18.62;;;6.62;;
36963;SDS011;22878;48.616;35.326;2022-11-20T15:22:57;17.17;;;6.05;;
36963;SDS011;22878;48.616;35.326;2022-11-20T15:25:23;15.85;;;6.42;;
36963;SDS011;22878;48.616;35.326;2022-11-20T15:27:51;23.83;;;8.28;;
36963;SDS011;22878;48.616;35.326;2022-11-20T15:30:22;29.35;;;9.15;;
36963;SDS011;22878;48.616;35.326;2022-11-20T15:32:49;28.07;;;9.05;;
36963;SDS011;22878;48.616;35.326;2022-11-20T15:35:15;20.60;;;7.87;;
36963;SDS011;22878;48.616;35.326;2022-11-20T15:37:41;17.17;;;5.87;;
36963;SDS011;22878;48.616;35.326;2022-11-20T15:40:08;15.78;;;5.87;;
36963;SDS011;22878;48.616;35.326;2022-11-20T15:42:35;15.88;;;6.03;;
36963;SDS011;22878;48.616;35.326;2022-11-20T15:45:02;15.15;;;5.45;;
36963;SDS011;22878;48.616;35.326;2022-11-20T15:47:32;17.30;;;5.72;;
36963;SDS011;22878;48.616;35.326;2022-11-20T15:50:01;15.30;;;5.75;;
36963;SDS011;22878;48.616;35.326;2022-11-20T15:52:28;15.65;;;5.90;;
36963;SDS011;22878;48.616;35.326;2022-11-20T15:54:54;13.32;;;5.33;;
36963;SDS011;22878;48.616;35.326;2022-11-20T15:57:21;13.22;;;5.10;;
36963;SDS011;22878;48.616;35.326;2022-11-20T15:59:47;13.62;;;5.22;;
36963;SDS011;22878;48.616;35.326;2022-11-20T16:02:14;12.53;;;4.78;;
36963;SDS011;22878;48.616;35.326;2022-11-20T16:04:41;10.08;;;4.17;;
36963;SDS011;22878;48.616;35.326;2022-11-20T16:07:07;9.23;;;3.90;;
36963;SDS011;22878;48.616;35.326;2022-11-20T16:09:34;10.88;;;4.53;;
36963;SDS011;22878;48.616;35.326;2022-11-20T16:12:00;11.20;;;4.75;;
36963;SDS011;22878;48.616;35.326;2022-11-20T16:14:26;11.63;;;4.95;;
36963;SDS011;22878;48.616;35.326;2022-11-20T16:17:11;11.45;;;4.75;;
36963;SDS011;22878;48.616;35.326;2022-11-20T16:19:38;12.80;;;4.33;;
36963;SDS011;22878;48.616;35.326;2022-11-20T16:22:04;11.25;;;4.53;;
36963;SDS011;22878;48.616;35.326;2022-11-20T16:24:30;13.38;;;5.05;;
36963;SDS011;22878;48.616;35.326;2022-11-20T16:26:56;12.45;;;4.58;;
36963;SDS011;22878;48.616;35.326;2022-11-20T16:29:22;13.65;;;4.92;;
36963;SDS011;22878;48.616;35.326;2022-11-20T16:31:48;10.88;;;4.37;;
36963;SDS011;22878;48.616;35.326;2022-11-20T16:34:15;9.88;;;4.60;;
36963;SDS011;22878;48.616;35.326;2022-11-20T16:36:43;13.40;;;4.62;;
36963;SDS011;22878;48.616;35.326;2022-11-20T16:39:10;13.78;;;5.08;;
36963;SDS011;22878;48.616;35.326;2022-11-20T16:41:37;11.30;;;4.25;;
36963;SDS011;22878;48.616;35.326;2022-11-20T16:44:07;12.55;;;4.28;;
36963;SDS011;22878;48.616;35.326;2022-11-20T16:46:35;10.93;;;3.87;;
36963;SDS011;22878;48.616;35.326;2022-11-20T16:49:04;11.93;;;4.10;;
36963;SDS011;22878;48.616;35.326;2022-11-20T16:51:34;10.78;;;4.37;;
36963;SDS011;22878;48.616;35.326;2022-11-20T16:54:01;14.07;;;4.70;;
36963;SDS011;22878;48.616;35.326;2022-11-20T16:56:33;12.55;;;4.55;;
36963;SDS011;22878;48.616;35.326;2022-11-20T16:58:59;14.65;;;4.80;;
36963;SDS011;22878;48.616;35.326;2022-11-20T17:01:27;14.63;;;5.28;;
36963;SDS011;22878;48.616;35.326;2022-11-20T17:03:57;14.35;;;5.95;;
36963;SDS011;22878;48.616;35.326;2022-11-20T17:06:30;15.28;;;5.80;;
36963;SDS011;22878;48.616;35.326;2022-11-20T17:08:59;15.53;;;5.47;;
36963;SDS011;22878;48.616;35.326;2022-11-20T17:11:25;15.68;;;5.33;;